Time;durP1;ratioP1;P1;durP2;ratioP2;P2;SDS_P1;SDS_P2;PMS_P1;PMS_P2;Temp;Humidity;BMP_temperature;BMP_pressure;BME280_temperature;BME280_humidity;BME280_pressure;Samples;Min_cycle;Max_cycle;Signal;HPM_P1;HPM_P2
2022/04/13 00:01:06;;;;;;;;;;;15.70;60.60;;;;;;5029006;28;19918;-79
2022/04/13 00:03:32;;;;;;;;;;;15.70;60.60;;;;;;5018691;28;19975;-79
2022/04/13 00:05:57;;;;;;;;;;;15.60;60.70;;;;;;5014269;28;20317;-79
2022/04/13 00:08:22;;;;;;;;;;;15.60;61.20;;;;;;5026067;28;19913;-79
2022/04/13 00:10:48;;;;;;;;;;;15.50;61.50;;;;;;5019211;28;19920;-79
2022/04/13 00:13:13;;;;;;;;;;;15.40;61.60;;;;;;5027253;28;19920;-81
2022/04/13 00:15:39;;;;;;;;;;;15.30;62.10;;;;;;5030004;28;20433;-80
2022/04/13 00:18:06;;;;;;;;;;;15.20;62.70;;;;;;5013300;28;19921;-80
2022/04/13 00:20:31;;;;;;;;;;;15.10;62.90;;;;;;5026325;28;19914;-80
2022/04/13 00:22:57;;;;;;;;;;;15.00;63.10;;;;;;5015652;28;19952;-79
2022/04/13 00:25:22;;;;;;;;;;;14.90;64.20;;;;;;5017142;28;20480;-80
2022/04/13 00:27:47;;;;;;;;;;;14.80;64.80;;;;;;5025451;28;19987;-79
2022/04/13 00:30:13;;;;;;;;;;;14.70;65.50;;;;;;5028109;28;19979;-79
2022/04/13 00:32:38;;;;;;;;;;;14.60;65.60;;;;;;5023747;28;19957;-79
2022/04/13 00:35:04;;;;;;;;;;;14.60;65.80;;;;;;5026436;28;19965;-79
2022/04/13 00:37:30;;;;;;;;;;;14.60;66.00;;;;;;5029668;28;20341;-82
2022/04/13 00:39:56;;;;;;;;;;;14.50;66.30;;;;;;5024417;28;19936;-79
2022/04/13 00:42:21;;;;;;;;;;;14.50;66.00;;;;;;5025151;28;20361;-79
2022/04/13 00:44:47;;;;;;;;;;;14.50;66.10;;;;;;5026819;28;20074;-79
2022/04/13 00:47:13;;;;;;;;;;;14.50;66.40;;;;;;5032622;28;19964;-78
2022/04/13 00:49:39;;;;;;;;;;;14.50;66.00;;;;;;5017743;28;19983;-79
2022/04/13 00:52:05;;;;;;;;;;;14.50;66.20;;;;;;5023441;28;19959;-79
2022/04/13 00:54:31;;;;;;;;;;;14.50;66.10;;;;;;5024307;28;19917;-79
2022/04/13 00:56:57;;;;;;;;;;;14.50;66.10;;;;;;5022471;28;19921;-78
2022/04/13 00:59:23;;;;;;;;;;;14.50;66.10;;;;;;5026995;28;19913;-79
2022/04/13 01:01:49;;;;;;;;;;;14.50;66.30;;;;;;5017664;28;20282;-79
2022/04/13 01:04:15;;;;;;;;;;;14.50;66.10;;;;;;5031747;28;19967;-79
2022/04/13 01:06:41;;;;;;;;;;;14.60;66.00;;;;;;5027227;28;19913;-78
2022/04/13 01:09:07;;;;;;;;;;;14.60;66.10;;;;;;5022583;28;19924;-79
2022/04/13 01:11:33;;;;;;;;;;;14.60;64.70;;;;;;5015419;28;19913;-79
2022/04/13 01:13:58;;;;;;;;;;;14.70;64.00;;;;;;5022235;28;19933;-78
2022/04/13 01:16:24;;;;;;;;;;;14.80;63.40;;;;;;5028623;28;19909;-79
2022/04/13 01:18:50;;;;;;;;;;;14.70;63.60;;;;;;5016344;28;20000;-79
2022/04/13 01:21:19;;;;;;;;;;;14.60;63.90;;;;;;5025345;28;19929;-79
2022/04/13 01:23:44;;;;;;;;;;;14.60;64.00;;;;;;5015962;28;19921;-79
2022/04/13 01:26:10;;;;;;;;;;;14.60;63.90;;;;;;5025984;28;20360;-79
2022/04/13 01:28:36;;;;;;;;;;;14.50;64.60;;;;;;5023019;28;19913;-79
2022/04/13 01:31:02;;;;;;;;;;;14.50;64.90;;;;;;5024268;28;19919;-79
2022/04/13 01:33:28;;;;;;;;;;;14.50;64.80;;;;;;5019506;28;20000;-79
2022/04/13 01:35:56;;;;;;;;;;;14.40;65.10;;;;;;5022605;28;19921;-79
2022/04/13 01:38:21;;;;;;;;;;;14.30;65.20;;;;;;5021347;28;20044;-79
2022/04/13 01:40:49;;;;;;;;;;;14.30;65.20;;;;;;5016984;28;19957;-79
2022/04/13 01:43:14;;;;;;;;;;;14.30;65.30;;;;;;5010875;28;19949;-79
2022/04/13 01:45:40;;;;;;;;;;;14.30;65.60;;;;;;5026527;28;20048;-79
2022/04/13 01:48:07;;;;;;;;;;;14.20;66.00;;;;;;5010628;28;19913;-79
2022/04/13 01:50:33;;;;;;;;;;;14.20;65.80;;;;;;5018334;28;19921;-79
2022/04/13 01:52:58;;;;;;;;;;;14.20;65.80;;;;;;5010148;28;20033;-79
2022/04/13 01:55:24;;;;;;;;;;;14.10;66.20;;;;;;5013515;28;19918;-80
2022/04/13 01:57:49;;;;;;;;;;;14.10;66.80;;;;;;5024230;28;19940;-79
2022/04/13 02:00:15;;;;;;;;;;;14.00;66.80;;;;;;5024782;28;19913;-79
2022/04/13 02:02:40;;;;;;;;;;;14.00;66.90;;;;;;5025474;28;19978;-79
2022/04/13 02:05:06;;;;;;;;;;;14.00;67.30;;;;;;5020741;28;20007;-80
2022/04/13 02:07:32;;;;;;;;;;;14.00;67.20;;;;;;5022117;28;19913;-79
2022/04/13 02:09:58;;;;;;;;;;;14.00;67.20;;;;;;5029297;28;19979;-79
2022/04/13 02:12:23;;;;;;;;;;;14.00;67.50;;;;;;5023422;28;19972;-79
2022/04/13 02:14:49;;;;;;;;;;;14.00;67.20;;;;;;5033370;28;20100;-79
2022/04/13 02:17:19;;;;;;;;;;;14.00;66.90;;;;;;5016670;28;20017;-79
2022/04/13 02:19:44;;;;;;;;;;;14.00;66.60;;;;;;5031853;28;19944;-79
2022/04/13 02:22:10;;;;;;;;;;;14.00;66.70;;;;;;5019479;28;19971;-79
2022/04/13 02:24:36;;;;;;;;;;;14.00;66.40;;;;;;5013383;28;19928;-79
2022/04/13 02:27:02;;;;;;;;;;;14.00;66.00;;;;;;5021311;28;19920;-79
2022/04/13 02:29:27;;;;;;;;;;;14.00;66.00;;;;;;5027018;28;19914;-79
2022/04/13 02:31:53;;;;;;;;;;;14.00;66.50;;;;;;5027569;28;19920;-78
2022/04/13 02:34:18;;;;;;;;;;;14.00;66.00;;;;;;5025753;28;20467;-79
2022/04/13 02:36:44;;;;;;;;;;;14.00;66.30;;;;;;5029411;28;20344;-79
2022/04/13 02:39:09;;;;;;;;;;;13.90;66.60;;;;;;5019895;28;19955;-78
2022/04/13 02:41:35;;;;;;;;;;;13.80;67.00;;;;;;5019485;28;19967;-78
2022/04/13 02:44:00;;;;;;;;;;;13.80;67.10;;;;;;5022671;28;19975;-79
2022/04/13 02:46:26;;;;;;;;;;;13.80;67.20;;;;;;5024617;28;19917;-79
2022/04/13 02:48:51;;;;;;;;;;;13.80;66.80;;;;;;5012315;28;20004;-78
2022/04/13 02:51:17;;;;;;;;;;;13.80;67.20;;;;;;5029104;28;20444;-78
2022/04/13 02:53:42;;;;;;;;;;;13.70;67.20;;;;;;5022545;28;19925;-78
2022/04/13 02:56:08;;;;;;;;;;;13.70;66.50;;;;;;5023583;28;19921;-78
2022/04/13 02:58:33;;;;;;;;;;;13.70;66.90;;;;;;5013003;28;19924;-78
2022/04/13 03:00:59;;;;;;;;;;;13.70;67.10;;;;;;5018637;28;19913;-76
2022/04/13 03:03:24;;;;;;;;;;;13.60;67.10;;;;;;5016713;28;19917;-78
2022/04/13 03:05:50;;;;;;;;;;;13.60;67.30;;;;;;5030016;28;19920;-77
2022/04/13 03:08:16;;;;;;;;;;;13.60;67.10;;;;;;5012323;28;19917;-78
2022/04/13 03:10:43;;;;;;;;;;;13.60;67.30;;;;;;5027176;28;19925;-77
2022/04/13 03:13:10;;;;;;;;;;;13.50;67.30;;;;;;5021246;28;19939;-78
2022/04/13 03:15:35;;;;;;;;;;;13.50;67.90;;;;;;5026791;28;19999;-77
2022/04/13 03:18:01;;;;;;;;;;;13.40;68.00;;;;;;5012357;28;20004;-78
2022/04/13 03:20:26;;;;;;;;;;;13.40;68.00;;;;;;5010861;28;20432;-78
2022/04/13 03:22:52;;;;;;;;;;;13.40;67.90;;;;;;5022666;28;19968;-78
2022/04/13 03:25:20;;;;;;;;;;;13.30;68.00;;;;;;5024146;28;19943;-77
2022/04/13 03:27:46;;;;;;;;;;;13.30;68.10;;;;;;5029921;28;19921;-78
2022/04/13 03:30:16;;;;;;;;;;;13.20;68.20;;;;;;5025136;28;19920;-79
2022/04/13 03:32:42;;;;;;;;;;;13.20;68.30;;;;;;5032053;28;19913;-78
2022/04/13 03:35:08;;;;;;;;;;;13.30;68.30;;;;;;5041222;28;19913;-79
2022/04/13 03:37:33;;;;;;;;;;;13.30;68.70;;;;;;5026540;28;19925;-78
2022/04/13 03:39:59;;;;;;;;;;;13.30;68.70;;;;;;5021655;28;19921;-79
2022/04/13 03:42:24;;;;;;;;;;;13.30;68.40;;;;;;5026040;28;19992;-78
2022/04/13 03:44:50;;;;;;;;;;;13.20;68.90;;;;;;5027849;28;19914;-79
2022/04/13 03:47:16;;;;;;;;;;;13.20;68.70;;;;;;5033089;28;19913;-78
2022/04/13 03:49:41;;;;;;;;;;;13.20;68.90;;;;;;5026543;28;19921;-78
2022/04/13 03:52:07;;;;;;;;;;;13.10;68.90;;;;;;5032055;28;19917;-78
2022/04/13 03:54:32;;;;;;;;;;;13.10;69.00;;;;;;5030843;28;19936;-79
2022/04/13 03:56:58;;;;;;;;;;;13.10;69.10;;;;;;5024062;28;19921;-77
2022/04/13 03:59:24;;;;;;;;;;;13.10;69.30;;;;;;5028432;28;19985;-79
2022/04/13 04:01:50;;;;;;;;;;;13.10;69.10;;;;;;5023637;28;19913;-78
2022/04/13 04:04:15;;;;;;;;;;;13.10;68.20;;;;;;5033117;28;19915;-78
2022/04/13 04:06:41;;;;;;;;;;;13.20;68.80;;;;;;5020177;28;19921;-79
2022/04/13 04:09:06;;;;;;;;;;;13.10;68.70;;;;;;5013808;28;19917;-78
2022/04/13 04:11:32;;;;;;;;;;;13.20;68.70;;;;;;5021863;28;19921;-77
2022/04/13 04:13:57;;;;;;;;;;;13.10;68.80;;;;;;5025973;28;19920;-79
2022/04/13 04:16:22;;;;;;;;;;;13.20;68.60;;;;;;5026199;28;20008;-79
2022/04/13 04:18:50;;;;;;;;;;;13.10;68.60;;;;;;5031714;28;20545;-79
2022/04/13 04:21:15;;;;;;;;;;;13.10;68.70;;;;;;5019559;28;20519;-79
2022/04/13 04:23:41;;;;;;;;;;;13.10;68.80;;;;;;5013770;28;19916;-78
2022/04/13 04:26:06;;;;;;;;;;;13.10;68.80;;;;;;5019528;28;20015;-79
2022/04/13 04:28:32;;;;;;;;;;;13.10;68.80;;;;;;5024838;28;19929;-79
2022/04/13 04:30:57;;;;;;;;;;;13.00;69.10;;;;;;5019456;28;19925;-79
2022/04/13 04:33:24;;;;;;;;;;;13.00;69.10;;;;;;5020969;28;19914;-79
2022/04/13 04:35:51;;;;;;;;;;;12.90;69.10;;;;;;5031978;28;20107;-79
2022/04/13 04:38:17;;;;;;;;;;;12.90;69.20;;;;;;5023391;28;19913;-79
2022/04/13 04:40:43;;;;;;;;;;;12.90;69.70;;;;;;5022711;28;19914;-80
2022/04/13 04:43:08;;;;;;;;;;;12.80;69.90;;;;;;5017663;28;20028;-80
2022/04/13 04:45:34;;;;;;;;;;;12.80;70.30;;;;;;5021765;28;19913;-79
2022/04/13 04:48:04;;;;;;;;;;;12.70;70.30;;;;;;5029160;28;20305;-80
2022/04/13 04:50:30;;;;;;;;;;;12.70;70.30;;;;;;5022803;28;20384;-80
2022/04/13 04:52:56;;;;;;;;;;;12.70;70.30;;;;;;5027115;28;20016;-79
2022/04/13 04:55:21;;;;;;;;;;;12.70;70.60;;;;;;5018703;28;19917;-80
2022/04/13 04:57:47;;;;;;;;;;;12.70;70.70;;;;;;5020540;28;19936;-80
2022/04/13 05:00:14;;;;;;;;;;;12.60;70.80;;;;;;5024586;28;19916;-79
2022/04/13 05:02:39;;;;;;;;;;;12.70;71.10;;;;;;5028553;28;19920;-80
2022/04/13 05:05:06;;;;;;;;;;;12.70;71.00;;;;;;5022425;28;19972;-80
2022/04/13 05:07:35;;;;;;;;;;;12.70;70.90;;;;;;5025732;28;20338;-78
2022/04/13 05:10:00;;;;;;;;;;;12.80;71.10;;;;;;5031409;28;20385;-80
2022/04/13 05:12:26;;;;;;;;;;;12.80;71.30;;;;;;5016625;28;19960;-83
2022/04/13 05:14:55;;;;;;;;;;;12.90;71.30;;;;;;5014745;28;19956;-79
2022/04/13 05:17:21;;;;;;;;;;;12.90;71.30;;;;;;5023470;28;20313;-80
2022/04/13 05:19:47;;;;;;;;;;;12.90;71.40;;;;;;5015776;28;19914;-79
2022/04/13 05:22:14;;;;;;;;;;;12.90;71.20;;;;;;5038073;28;19917;-81
2022/04/13 05:24:39;;;;;;;;;;;13.00;71.10;;;;;;5013918;28;20450;-81
2022/04/13 05:27:06;;;;;;;;;;;13.00;71.00;;;;;;5022054;28;20047;-79
2022/04/13 05:29:31;;;;;;;;;;;13.00;71.10;;;;;;5018999;28;20273;-78
2022/04/13 05:31:57;;;;;;;;;;;13.00;71.30;;;;;;5022048;28;20250;-78
2022/04/13 05:34:22;;;;;;;;;;;13.10;71.20;;;;;;5029337;28;20444;-78
2022/04/13 05:36:48;;;;;;;;;;;13.10;70.90;;;;;;5024815;28;19929;-79
2022/04/13 05:39:13;;;;;;;;;;;13.10;71.00;;;;;;5030606;28;20331;-77
2022/04/13 05:41:39;;;;;;;;;;;13.10;71.00;;;;;;5026426;28;19913;-78
2022/04/13 05:44:05;;;;;;;;;;;13.20;71.00;;;;;;5019469;28;19968;-77
2022/04/13 05:46:33;;;;;;;;;;;13.30;71.00;;;;;;5039051;28;20082;-78
2022/04/13 05:48:59;;;;;;;;;;;13.30;70.90;;;;;;5031111;28;19925;-78
2022/04/13 05:51:25;;;;;;;;;;;13.40;70.90;;;;;;5041328;28;19913;-78
2022/04/13 05:53:50;;;;;;;;;;;13.50;70.50;;;;;;5015773;28;20449;-79
2022/04/13 05:56:16;;;;;;;;;;;13.60;70.00;;;;;;5023286;28;20485;-79
2022/04/13 05:58:41;;;;;;;;;;;13.80;69.70;;;;;;5020724;28;19913;-79
2022/04/13 06:01:07;;;;;;;;;;;13.90;69.10;;;;;;5016439;28;19918;-78
2022/04/13 06:03:32;;;;;;;;;;;14.00;68.50;;;;;;5014788;28;19920;-78
2022/04/13 06:05:57;;;;;;;;;;;14.10;67.80;;;;;;5014665;28;19940;-79
2022/04/13 06:08:23;;;;;;;;;;;14.20;67.20;;;;;;5024433;28;20304;-79
2022/04/13 06:10:48;;;;;;;;;;;14.40;66.90;;;;;;5029151;28;20523;-79
2022/04/13 06:13:14;;;;;;;;;;;14.50;66.50;;;;;;5028416;28;20008;-79
2022/04/13 06:15:39;;;;;;;;;;;14.60;66.20;;;;;;5020428;28;20040;-79
2022/04/13 06:18:05;;;;;;;;;;;14.60;65.40;;;;;;5012485;28;20040;-80
2022/04/13 06:20:31;;;;;;;;;;;14.70;65.50;;;;;;5018411;28;19914;-79
2022/04/13 06:22:56;;;;;;;;;;;14.80;65.50;;;;;;5023073;28;20155;-79
2022/04/13 06:25:22;;;;;;;;;;;14.80;65.00;;;;;;5025772;28;20314;-79
2022/04/13 06:27:48;;;;;;;;;;;14.90;65.00;;;;;;5018871;28;19922;-78
2022/04/13 06:30:14;;;;;;;;;;;15.00;64.40;;;;;;5022330;28;20024;-78
2022/04/13 06:32:40;;;;;;;;;;;15.00;64.90;;;;;;5023168;28;20527;-79
2022/04/13 06:35:07;;;;;;;;;;;15.10;65.00;;;;;;5021829;28;20009;-81
2022/04/13 06:37:34;;;;;;;;;;;15.20;64.30;;;;;;5021778;28;20016;-81
2022/04/13 06:40:00;;;;;;;;;;;15.20;64.40;;;;;;5022709;28;19918;-79
2022/04/13 06:42:25;;;;;;;;;;;15.30;64.10;;;;;;5025301;28;19994;-81
2022/04/13 06:44:54;;;;;;;;;;;15.40;63.90;;;;;;5019492;28;19920;-80
2022/04/13 06:47:20;;;;;;;;;;;15.50;63.70;;;;;;5024816;28;20047;-81
2022/04/13 06:49:46;;;;;;;;;;;15.60;63.70;;;;;;5024996;28;19932;-81
2022/04/13 06:52:11;;;;;;;;;;;15.70;63.30;;;;;;5021026;28;19913;-77
2022/04/13 06:54:37;;;;;;;;;;;15.80;63.20;;;;;;5019710;28;19957;-81
2022/04/13 06:57:02;;;;;;;;;;;15.90;63.10;;;;;;5025408;28;20177;-80
2022/04/13 06:59:28;;;;;;;;;;;16.00;63.00;;;;;;5021617;28;20440;-79
2022/04/13 07:01:56;;;;;;;;;;;16.00;62.90;;;;;;5018979;28;20000;-80
2022/04/13 07:04:22;;;;;;;;;;;16.00;62.70;;;;;;5020982;28;19968;-80
2022/04/13 07:06:47;;;;;;;;;;;16.00;62.80;;;;;;5022537;28;19913;-79
2022/04/13 07:09:13;;;;;;;;;;;16.10;62.90;;;;;;5038242;28;19925;-77
2022/04/13 07:11:39;;;;;;;;;;;16.10;63.10;;;;;;5026321;28;20378;-78
2022/04/13 07:14:05;;;;;;;;;;;16.20;63.30;;;;;;5025172;28;19917;-79
2022/04/13 07:16:30;;;;;;;;;;;16.20;62.70;;;;;;5013407;28;20547;-78
2022/04/13 07:18:56;;;;;;;;;;;16.10;62.90;;;;;;5024648;28;20008;-77
2022/04/13 07:21:21;;;;;;;;;;;16.10;63.20;;;;;;5022266;28;19921;-78
2022/04/13 07:23:47;;;;;;;;;;;16.10;63.60;;;;;;5010833;28;20389;-76
2022/04/13 07:26:13;;;;;;;;;;;16.10;63.70;;;;;;5015478;28;20079;-79
2022/04/13 07:28:38;;;;;;;;;;;16.10;63.70;;;;;;5014763;28;19967;-77
2022/04/13 07:31:04;;;;;;;;;;;16.10;64.20;;;;;;5017611;28;19925;-78
2022/04/13 07:33:29;;;;;;;;;;;16.10;64.00;;;;;;5022390;28;19917;-79
2022/04/13 07:35:55;;;;;;;;;;;16.20;63.00;;;;;;5029701;28;20348;-77
2022/04/13 07:38:20;;;;;;;;;;;16.20;62.70;;;;;;5023314;28;19932;-78
2022/04/13 07:40:46;;;;;;;;;;;16.30;62.80;;;;;;5023793;28;19913;-79
2022/04/13 07:43:12;;;;;;;;;;;16.50;62.40;;;;;;5018831;28;19932;-80
2022/04/13 07:45:39;;;;;;;;;;;16.50;62.70;;;;;;5026565;28;19913;-79
2022/04/13 07:48:05;;;;;;;;;;;16.70;62.00;;;;;;5029866;28;19931;-78
2022/04/13 07:50:34;;;;;;;;;;;16.80;62.00;;;;;;5031687;28;20393;-81
2022/04/13 07:52:59;;;;;;;;;;;16.80;61.70;;;;;;5018572;28;20642;-80
2022/04/13 07:55:25;;;;;;;;;;;16.70;62.80;;;;;;5024360;28;19928;-77
2022/04/13 07:57:51;;;;;;;;;;;16.80;62.10;;;;;;5019501;28;19967;-79
2022/04/13 08:00:16;;;;;;;;;;;16.90;62.00;;;;;;5023238;28;19921;-78
2022/04/13 08:02:42;;;;;;;;;;;17.00;62.70;;;;;;5018485;28;19927;-77
2022/04/13 08:05:09;;;;;;;;;;;17.00;61.90;;;;;;5032976;28;19924;-78
2022/04/13 08:07:34;;;;;;;;;;;17.10;61.30;;;;;;5029799;28;19949;-77
2022/04/13 08:10:00;;;;;;;;;;;17.10;61.40;;;;;;5022122;28;19924;-78
2022/04/13 08:12:26;;;;;;;;;;;17.10;60.90;;;;;;5026570;28;20396;-77
2022/04/13 08:14:52;;;;;;;;;;;17.10;61.30;;;;;;5027320;28;20049;-77
2022/04/13 08:17:18;;;;;;;;;;;17.10;61.40;;;;;;5040684;28;19956;-79
2022/04/13 08:19:44;;;;;;;;;;;17.10;61.30;;;;;;5043257;28;20032;-79
2022/04/13 08:22:09;;;;;;;;;;;17.10;61.70;;;;;;5028716;28;20769;-82
2022/04/13 08:24:35;;;;;;;;;;;17.10;61.60;;;;;;5021485;28;19961;-81
2022/04/13 08:27:00;;;;;;;;;;;17.10;62.30;;;;;;5021991;28;19928;-78
2022/04/13 08:29:26;;;;;;;;;;;17.40;61.10;;;;;;5031954;28;20356;-79
2022/04/13 08:31:52;;;;;;;;;;;17.40;60.90;;;;;;5030081;28;19996;-78
2022/04/13 08:34:17;;;;;;;;;;;17.50;60.60;;;;;;5030297;28;19971;-79
2022/04/13 08:36:42;;;;;;;;;;;17.50;61.00;;;;;;5024259;28;19996;-78
2022/04/13 08:39:13;;;;;;;;;;;17.60;61.20;;;;;;5019098;28;20424;-79
2022/04/13 08:41:42;;;;;;;;;;;17.70;60.20;;;;;;5029839;28;19976;-78
2022/04/13 08:44:14;;;;;;;;;;;17.70;60.40;;;;;;5031494;28;19945;-80
2022/04/13 08:46:40;;;;;;;;;;;17.70;60.50;;;;;;5021817;28;19978;-79
2022/04/13 08:49:07;;;;;;;;;;;17.80;60.30;;;;;;5032141;28;19910;-78
2022/04/13 08:51:34;;;;;;;;;;;17.90;60.00;;;;;;5020598;28;19920;-80
2022/04/13 08:54:26;;;;;;;;;;;18.10;60.10;;;;;;5037719;28;19913;-79
2022/04/13 08:56:54;;;;;;;;;;;18.00;60.20;;;;;;5017404;28;19921;-79
2022/04/13 08:59:32;;;;;;;;;;;18.10;60.30;;;;;;5018663;28;19913;-79
2022/04/13 09:02:04;;;;;;;;;;;18.30;59.40;;;;;;5012487;28;19999;-79
2022/04/13 09:04:31;;;;;;;;;;;18.20;59.70;;;;;;5032897;28;19968;-80
2022/04/13 09:07:01;;;;;;;;;;;18.40;60.00;;;;;;5045043;28;19913;-80
2022/04/13 09:09:38;;;;;;;;;;;18.50;59.00;;;;;;5032769;28;19920;-81
2022/04/13 09:12:04;;;;;;;;;;;18.50;59.30;;;;;;5023610;28;19913;-79
2022/04/13 09:14:30;;;;;;;;;;;18.40;59.50;;;;;;5022314;28;20020;-78
2022/04/13 09:16:56;;;;;;;;;;;18.50;59.20;;;;;;5014942;28;19941;-78
2022/04/13 09:19:23;;;;;;;;;;;18.50;58.80;;;;;;5028614;28;19917;-79
2022/04/13 09:21:50;;;;;;;;;;;18.60;59.20;;;;;;5025081;28;19975;-79
2022/04/13 09:24:15;;;;;;;;;;;18.60;59.20;;;;;;5018152;28;19918;-79
2022/04/13 09:26:42;;;;;;;;;;;18.50;59.60;;;;;;5021178;28;19916;-78
2022/04/13 09:29:08;;;;;;;;;;;18.50;59.80;;;;;;5026958;28;20044;-78
2022/04/13 09:31:34;;;;;;;;;;;18.60;59.50;;;;;;5025776;28;19944;-77
2022/04/13 09:33:59;;;;;;;;;;;18.60;59.20;;;;;;5012052;28;19933;-78
2022/04/13 09:36:25;;;;;;;;;;;18.70;59.90;;;;;;5023551;28;19924;-78
2022/04/13 09:38:52;;;;;;;;;;;18.90;59.70;;;;;;5034280;28;19910;-78
2022/04/13 09:41:17;;;;;;;;;;;19.00;58.20;;;;;;5024129;28;19914;-79
2022/04/13 09:43:52;;;;;;;;;;;19.10;57.00;;;;;;5011822;28;19929;-81
2022/04/13 09:46:28;;;;;;;;;;;19.10;57.20;;;;;;5023248;28;19914;-81
2022/04/13 09:49:10;;;;;;;;;;;19.20;57.80;;;;;;5021286;28;20000;-81
2022/04/13 09:51:39;;;;;;;;;;;19.20;57.30;;;;;;5025465;28;19913;-81
2022/04/13 09:54:06;;;;;;;;;;;19.30;56.80;;;;;;5029617;28;19921;-80
2022/04/13 09:56:31;;;;;;;;;;;19.50;57.20;;;;;;5026744;28;19913;-80
2022/04/13 09:58:57;;;;;;;;;;;19.60;56.10;;;;;;5035254;28;19919;-80
2022/04/13 10:01:22;;;;;;;;;;;19.50;56.30;;;;;;5019279;28;19913;-80
2022/04/13 10:03:52;;;;;;;;;;;19.60;56.20;;;;;;5029175;28;19917;-80
2022/04/13 10:06:25;;;;;;;;;;;19.90;55.20;;;;;;5021664;28;20004;-80
2022/04/13 10:08:57;;;;;;;;;;;19.70;55.00;;;;;;5019576;28;19913;-80
2022/04/13 10:11:22;;;;;;;;;;;20.00;54.40;;;;;;5029856;28;20053;-80
2022/04/13 10:13:48;;;;;;;;;;;19.90;54.60;;;;;;5023635;28;19919;-81
2022/04/13 10:16:16;;;;;;;;;;;20.10;54.80;;;;;;5034217;28;20378;-80
2022/04/13 10:18:52;;;;;;;;;;;20.10;55.00;;;;;;5031212;28;19917;-78
2022/04/13 10:21:36;;;;;;;;;;;20.10;54.90;;;;;;5017254;28;19917;-80
2022/04/13 10:24:03;;;;;;;;;;;20.10;54.20;;;;;;5019588;28;19947;-79
2022/04/13 10:26:28;;;;;;;;;;;19.90;55.50;;;;;;5029631;28;20439;-81
2022/04/13 10:28:54;;;;;;;;;;;19.70;56.30;;;;;;5027572;28;19917;-79
2022/04/13 10:31:20;;;;;;;;;;;19.90;54.90;;;;;;5032699;28;19956;-80
2022/04/13 10:33:47;;;;;;;;;;;20.00;54.10;;;;;;5024084;28;19956;-80
2022/04/13 10:36:13;;;;;;;;;;;19.80;54.50;;;;;;5028073;28;19953;-80
2022/04/13 10:38:38;;;;;;;;;;;19.90;53.50;;;;;;5035129;28;19917;-80
2022/04/13 10:41:04;;;;;;;;;;;20.00;53.10;;;;;;5017168;28;19935;-81
2022/04/13 10:43:30;;;;;;;;;;;20.10;54.30;;;;;;5017941;28;19910;-79
2022/04/13 10:45:56;;;;;;;;;;;20.30;53.30;;;;;;5017636;28;19909;-80
2022/04/13 10:48:31;;;;;;;;;;;20.50;53.40;;;;;;5032514;28;19924;-82
2022/04/13 10:51:02;;;;;;;;;;;20.50;52.50;;;;;;5030779;28;19924;-83
2022/04/13 10:53:29;;;;;;;;;;;20.50;52.60;;;;;;5028841;28;19952;-81
2022/04/13 10:56:04;;;;;;;;;;;20.50;52.30;;;;;;5033499;28;19917;-81
2022/04/13 10:58:42;;;;;;;;;;;20.50;52.70;;;;;;5030616;28;19909;-82
2022/04/13 11:01:11;;;;;;;;;;;20.50;52.90;;;;;;5029043;28;19936;-81
2022/04/13 11:03:37;;;;;;;;;;;20.50;51.70;;;;;;5032375;28;19909;-81
2022/04/13 11:06:05;;;;;;;;;;;20.50;52.60;;;;;;5036021;28;19913;-82
2022/04/13 11:08:35;;;;;;;;;;;20.40;52.80;;;;;;5036779;28;19919;-82
2022/04/13 11:11:01;;;;;;;;;;;20.40;54.20;;;;;;5034764;28;19913;-82
2022/04/13 11:13:30;;;;;;;;;;;20.50;53.10;;;;;;5032333;28;19913;-80
2022/04/13 11:15:56;;;;;;;;;;;20.50;52.90;;;;;;5025134;28;19982;-81
2022/04/13 11:18:21;;;;;;;;;;;20.70;51.60;;;;;;5030594;28;19917;-79
2022/04/13 11:20:59;;;;;;;;;;;20.80;51.50;;;;;;5020004;28;19913;-83
2022/04/13 11:23:43;;;;;;;;;;;21.00;51.50;;;;;;5019292;28;19956;-81
2022/04/13 11:26:09;;;;;;;;;;;21.00;51.30;;;;;;5028309;28;19913;-85
2022/04/13 11:28:35;;;;;;;;;;;20.90;51.00;;;;;;5020749;28;20016;-84
2022/04/13 11:31:00;;;;;;;;;;;20.90;50.50;;;;;;5032390;28;19913;-79
2022/04/13 11:33:39;;;;;;;;;;;21.10;51.50;;;;;;5024853;28;20391;-81
2022/04/13 11:36:05;;;;;;;;;;;21.50;51.10;;;;;;5015517;28;19918;-83
2022/04/13 11:38:36;;;;;;;;;;;21.50;51.70;;;;;;5023078;28;19913;-82
2022/04/13 11:41:07;;;;;;;;;;;21.40;51.00;;;;;;5025427;28;19913;-84
2022/04/13 11:43:32;;;;;;;;;;;21.40;50.00;;;;;;5018653;28;19945;-82
2022/04/13 11:45:58;;;;;;;;;;;21.30;49.70;;;;;;5021497;28;20432;-81
2022/04/13 11:48:34;;;;;;;;;;;21.30;50.60;;;;;;5019097;28;19932;-86
2022/04/13 11:51:18;;;;;;;;;;;21.40;50.50;;;;;;5030773;28;19913;-81
2022/04/13 11:53:54;;;;;;;;;;;21.50;50.40;;;;;;5028535;28;19913;-82
2022/04/13 11:56:36;;;;;;;;;;;21.70;48.80;;;;;;5032430;28;19909;-83
2022/04/13 11:59:02;;;;;;;;;;;21.60;49.70;;;;;;5026735;28;20064;-81
2022/04/13 12:01:27;;;;;;;;;;;21.60;50.30;;;;;;5039357;28;19959;-82
2022/04/13 12:03:54;;;;;;;;;;;21.60;50.10;;;;;;5035131;28;20258;-83
2022/04/13 12:06:22;;;;;;;;;;;21.60;49.90;;;;;;5035850;28;19982;-83
2022/04/13 12:08:50;;;;;;;;;;;21.60;49.70;;;;;;5039281;28;19916;-82
2022/04/13 12:11:19;;;;;;;;;;;21.60;49.80;;;;;;5038986;28;19964;-81
2022/04/13 12:13:45;;;;;;;;;;;21.60;49.50;;;;;;5026182;28;19914;-83
2022/04/13 12:16:15;;;;;;;;;;;21.70;49.10;;;;;;5017550;28;19917;-82
2022/04/13 12:18:41;;;;;;;;;;;21.80;49.70;;;;;;5026579;28;19917;-83
2022/04/13 12:21:10;;;;;;;;;;;21.90;49.30;;;;;;5032398;28;19974;-83
2022/04/13 12:23:37;;;;;;;;;;;21.90;49.90;;;;;;5029606;28;20024;-82
2022/04/13 12:26:03;;;;;;;;;;;22.00;50.30;;;;;;5035461;28;19983;-84
2022/04/13 12:28:29;;;;;;;;;;;22.10;50.00;;;;;;5029567;28;19914;-83
2022/04/13 12:31:02;;;;;;;;;;;22.10;50.10;;;;;;5034105;28;20254;-83
2022/04/13 12:33:28;;;;;;;;;;;21.80;50.90;;;;;;5021595;28;19913;-82
2022/04/13 12:35:55;;;;;;;;;;;21.80;51.20;;;;;;5033895;28;20091;-83
2022/04/13 12:38:21;;;;;;;;;;;21.70;51.40;;;;;;5035871;28;19919;-83
2022/04/13 12:40:47;;;;;;;;;;;21.80;51.20;;;;;;5033089;28;19999;-82
2022/04/13 12:43:23;;;;;;;;;;;22.00;51.60;;;;;;5029177;28;20655;-81
2022/04/13 12:45:49;;;;;;;;;;;22.00;50.20;;;;;;5031155;28;19915;-82
2022/04/13 12:48:14;;;;;;;;;;;22.30;50.30;;;;;;5032462;28;19921;-81
2022/04/13 12:50:53;;;;;;;;;;;22.30;50.80;;;;;;5030047;28;19910;-81
2022/04/13 12:53:19;;;;;;;;;;;22.20;51.00;;;;;;5034890;28;19920;-82
2022/04/13 12:55:54;;;;;;;;;;;22.10;50.40;;;;;;5023420;28;20302;-81
2022/04/13 12:58:20;;;;;;;;;;;22.20;50.40;;;;;;5030916;28;19917;-81
2022/04/13 13:00:47;;;;;;;;;;;22.20;51.40;;;;;;5018870;28;19935;-81
2022/04/13 13:03:13;;;;;;;;;;;22.30;49.60;;;;;;5044190;28;19913;-81
2022/04/13 13:05:38;;;;;;;;;;;22.30;49.50;;;;;;5053836;28;19960;-82
2022/04/13 13:08:04;;;;;;;;;;;22.30;49.90;;;;;;5049641;28;19898;-81
2022/04/13 13:10:33;;;;;;;;;;;22.20;49.50;;;;;;5057239;28;20353;-81
2022/04/13 13:13:11;;;;;;;;;;;22.10;50.00;;;;;;5019357;28;19917;-80
2022/04/13 13:15:37;;;;;;;;;;;22.10;50.10;;;;;;5026436;28;19963;-83
2022/04/13 13:18:07;;;;;;;;;;;22.10;49.40;;;;;;5052904;28;19921;-81
2022/04/13 13:20:33;;;;;;;;;;;22.10;50.00;;;;;;5055645;28;19968;-81
2022/04/13 13:22:58;;;;;;;;;;;22.30;49.00;;;;;;5055675;28;19909;-81
2022/04/13 13:25:39;;;;;;;;;;;22.30;49.50;;;;;;5039830;28;19913;-81
2022/04/13 13:28:05;;;;;;;;;;;22.30;48.30;;;;;;5025537;28;19910;-80
2022/04/13 13:30:41;;;;;;;;;;;22.20;48.30;;;;;;5034679;28;19960;-81
2022/04/13 13:33:12;;;;;;;;;;;22.10;48.00;;;;;;5033476;28;20008;-79
2022/04/13 13:35:38;;;;;;;;;;;21.90;48.10;;;;;;5034446;28;19917;-80
2022/04/13 13:38:08;;;;;;;;;;;22.00;48.00;;;;;;5034790;28;19916;-82
2022/04/13 13:40:35;;;;;;;;;;;22.00;48.70;;;;;;5016600;28;19917;-81
2022/04/13 13:43:01;;;;;;;;;;;22.10;48.00;;;;;;5015366;28;19929;-80
2022/04/13 13:45:28;;;;;;;;;;;22.00;48.70;;;;;;5019771;28;19921;-79
2022/04/13 13:47:54;;;;;;;;;;;21.90;48.50;;;;;;5033601;28;20428;-80
2022/04/13 13:50:20;;;;;;;;;;;22.00;48.80;;;;;;5035368;28;19913;-80
2022/04/13 13:52:45;;;;;;;;;;;22.00;49.50;;;;;;5034240;28;19909;-81
2022/04/13 13:55:11;;;;;;;;;;;21.80;50.40;;;;;;5024302;28;19913;-80
2022/04/13 13:57:39;;;;;;;;;;;21.80;50.70;;;;;;5031598;28;19920;-80
2022/04/13 14:00:08;;;;;;;;;;;22.00;50.70;;;;;;5032385;28;20258;-80
2022/04/13 14:02:37;;;;;;;;;;;22.10;49.30;;;;;;5027759;28;19914;-81
2022/04/13 14:05:02;;;;;;;;;;;22.10;49.70;;;;;;5032610;28;19916;-79
2022/04/13 14:07:28;;;;;;;;;;;22.00;49.80;;;;;;5028862;28;19997;-80
2022/04/13 14:09:54;;;;;;;;;;;21.80;51.20;;;;;;5026823;28;20451;-80
2022/04/13 14:12:20;;;;;;;;;;;21.50;52.40;;;;;;5029769;28;20493;-80
2022/04/13 14:14:45;;;;;;;;;;;21.30;52.90;;;;;;5031013;28;19920;-80